createdAt,value
2022-08-16T00:00:27.274Z,10.95
2022-08-16T00:02:54.781Z,10.65
2022-08-16T00:05:23.180Z,10.70
2022-08-16T00:07:56.472Z,10.65
2022-08-16T00:10:26.694Z,10.85
2022-08-16T00:12:55.555Z,10.98
2022-08-16T00:15:51.353Z,10.40
2022-08-16T00:18:18.638Z,10.93
2022-08-16T00:20:48.573Z,11.55
2022-08-16T00:23:17.366Z,11.45
2022-08-16T00:26:33.701Z,11.48
2022-08-16T00:28:37.567Z,11.63
2022-08-16T00:31:04.154Z,13.23
2022-08-16T00:33:31.050Z,13.13
2022-08-16T00:35:57.738Z,12.20
2022-08-16T00:38:40.282Z,11.30
2022-08-16T00:41:08.492Z,12.05
2022-08-16T00:43:43.407Z,12.20
2022-08-16T00:46:33.724Z,11.68
2022-08-16T00:49:02.554Z,11.30
2022-08-16T00:51:29.429Z,11.23
2022-08-16T00:53:56.685Z,11.65
2022-08-16T00:56:57.194Z,11.82
2022-08-16T00:59:16.193Z,12.07
2022-08-16T01:01:44.642Z,10.93
2022-08-16T01:04:30.192Z,11.90
2022-08-16T01:07:02.109Z,11.25
2022-08-16T01:09:33.518Z,11.98
2022-08-16T01:12:08.464Z,12.38
2022-08-16T01:14:43.578Z,12.20
2022-08-16T01:17:13.826Z,11.70
2022-08-16T01:19:45.602Z,11.10
2022-08-16T01:22:47.645Z,11.02
2022-08-16T01:25:34.186Z,11.95
2022-08-16T01:28:03.968Z,11.70
2022-08-16T01:30:39.895Z,11.88
2022-08-16T01:33:17.201Z,11.88
2022-08-16T01:35:57.199Z,10.95
2022-08-16T01:38:34.675Z,11.70
2022-08-16T01:41:11.083Z,11.95
2022-08-16T01:43:42.805Z,12.15
2022-08-16T01:46:40.242Z,12.30
2022-08-16T01:49:21.575Z,11.95
2022-08-16T01:51:59.420Z,12.88
2022-08-16T01:54:37.495Z,12.60
2022-08-16T01:57:05.718Z,13.02
2022-08-16T01:59:33.913Z,11.98
2022-08-16T02:02:01.292Z,11.73
2022-08-16T02:04:48.410Z,12.68
2022-08-16T02:07:23.782Z,12.35
2022-08-16T02:09:58.577Z,12.15
2022-08-16T02:12:43.557Z,12.07
2022-08-16T02:15:24.787Z,11.95
2022-08-16T02:17:55.945Z,11.70
2022-08-16T02:20:26.309Z,12.27
2022-08-16T02:22:55.874Z,10.93
2022-08-16T02:25:22.682Z,11.98
2022-08-16T02:27:51.095Z,11.35
2022-08-16T02:30:36.047Z,11.80
2022-08-16T02:33:05.572Z,12.07
2022-08-16T02:35:34.279Z,11.02
2022-08-16T02:38:17.033Z,11.38
2022-08-16T02:40:45.625Z,12.13
2022-08-16T02:43:13.579Z,12.07
2022-08-16T02:45:41.874Z,11.77
2022-08-16T02:48:30.014Z,12.35
2022-08-16T02:51:10.228Z,11.82
2022-08-16T02:53:45.970Z,11.38
2022-08-16T02:56:18.299Z,11.82
2022-08-16T02:58:47.155Z,12.95
2022-08-16T03:01:24.924Z,11.32
2022-08-16T03:04:39.828Z,11.43
2022-08-16T03:06:56.870Z,11.85
2022-08-16T03:09:44.197Z,12.05
2022-08-16T03:12:16.549Z,11.02
2022-08-16T03:14:46.622Z,11.95
2022-08-16T03:17:14.445Z,12.13
2022-08-16T03:19:48.120Z,12.10
2022-08-16T03:22:28.287Z,11.13
2022-08-16T03:25:02.332Z,12.00
2022-08-16T03:27:33.393Z,12.43
2022-08-16T03:30:16.044Z,11.77
2022-08-16T03:32:47.337Z,12.18
2022-08-16T03:35:14.916Z,11.93
2022-08-16T03:38:01.583Z,11.68
2022-08-16T03:40:35.287Z,11.52
2022-08-16T03:43:19.620Z,12.40
2022-08-16T03:45:53.428Z,13.27
2022-08-16T03:48:36.283Z,13.45
2022-08-16T03:51:12.250Z,11.80
2022-08-16T03:53:45.925Z,12.20
2022-08-16T03:56:30.362Z,12.38
2022-08-16T03:58:58.181Z,12.63
2022-08-16T04:01:29.906Z,12.00
2022-08-16T04:03:57.351Z,12.30
2022-08-16T04:06:24.034Z,12.35
2022-08-16T04:08:51.326Z,12.68
2022-08-16T04:11:18.518Z,11.77
2022-08-16T04:14:00.922Z,12.45
2022-08-16T04:16:37.833Z,12.35
2022-08-16T04:19:25.930Z,12.05
2022-08-16T04:22:00.711Z,12.95
2022-08-16T04:24:54.093Z,13.38
2022-08-16T04:27:31.496Z,12.10
2022-08-16T04:30:02.751Z,13.05
2022-08-16T04:32:33.357Z,12.93
2022-08-16T04:35:08.480Z,13.43
2022-08-16T04:37:42.233Z,12.80
2022-08-16T04:40:29.407Z,12.32
2022-08-16T04:42:59.596Z,12.20
2022-08-16T04:45:36.026Z,13.15
2022-08-16T04:48:07.099Z,13.07
2022-08-16T04:50:43.648Z,13.00
2022-08-16T04:53:16.986Z,12.63
2022-08-16T04:55:53.141Z,12.77
2022-08-16T04:58:44.434Z,13.20
2022-08-16T05:01:08.656Z,13.40
2022-08-16T05:03:41.610Z,13.50
2022-08-16T05:06:22.657Z,12.40
2022-08-16T05:09:09.518Z,14.00
2022-08-16T05:11:36.578Z,12.82
2022-08-16T05:14:07.060Z,13.20
2022-08-16T05:16:35.652Z,12.68
2022-08-16T05:19:13.205Z,12.25
2022-08-16T05:21:54.241Z,16.20
2022-08-16T05:24:24.628Z,14.23
2022-08-16T05:26:52.103Z,13.68
2022-08-16T05:29:20.550Z,14.93
2022-08-16T05:32:32.351Z,13.60
2022-08-16T05:34:53.591Z,14.80
2022-08-16T05:37:24.411Z,18.75
2022-08-16T05:39:51.922Z,16.02
2022-08-16T05:42:22.136Z,16.52
2022-08-16T05:45:06.933Z,14.23
2022-08-16T05:47:34.853Z,15.15
2022-08-16T05:50:10.594Z,14.88
2022-08-16T05:52:46.377Z,13.85
2022-08-16T05:55:13.587Z,16.40
2022-08-16T05:57:40.127Z,14.73
2022-08-16T06:00:12.033Z,15.00
2022-08-16T06:02:45.055Z,15.00
2022-08-16T06:05:41.539Z,14.90
2022-08-16T06:08:08.909Z,16.05
2022-08-16T06:11:02.564Z,14.25
2022-08-16T06:13:37.754Z,14.73
2022-08-16T06:16:09.557Z,15.25
2022-08-16T06:18:45.539Z,14.65
2022-08-16T06:21:13.725Z,13.18
2022-08-16T06:23:51.082Z,13.25
2022-08-16T06:26:21.347Z,13.18
2022-08-16T06:28:48.095Z,13.27
2022-08-16T06:31:24.822Z,16.67
2022-08-16T06:33:54.200Z,13.40
2022-08-16T06:36:23.985Z,11.90
2022-08-16T06:39:12.208Z,12.70
2022-08-16T06:41:51.372Z,13.10
2022-08-16T06:44:32.051Z,12.45
2022-08-16T06:47:02.831Z,13.20
2022-08-16T06:49:30.001Z,12.63
2022-08-16T06:52:03.089Z,11.48
2022-08-16T06:54:34.273Z,13.27
2022-08-16T06:57:01.541Z,11.43
2022-08-16T06:59:28.198Z,11.70
2022-08-16T07:01:59.556Z,10.93
2022-08-16T07:04:33.317Z,11.73
2022-08-16T07:07:14.359Z,11.27
2022-08-16T07:09:41.817Z,12.23
2022-08-16T07:12:09.357Z,10.70
2022-08-16T07:14:41.089Z,11.50
2022-08-16T07:17:12.598Z,10.75
2022-08-16T07:20:29.358Z,10.68
2022-08-16T07:22:42.452Z,9.60
2022-08-16T07:25:23.123Z,9.80
2022-08-16T07:27:51.002Z,10.10
2022-08-16T07:30:38.440Z,9.43
2022-08-16T07:33:09.288Z,8.82
2022-08-16T07:35:44.434Z,8.80
2022-08-16T07:38:19.908Z,9.52
2022-08-16T07:40:59.443Z,9.85
2022-08-16T07:43:29.000Z,8.68
2022-08-16T07:46:01.600Z,9.30
2022-08-16T07:48:31.298Z,8.85
2022-08-16T07:51:00.321Z,8.60
2022-08-16T07:53:31.742Z,7.70
2022-08-16T07:56:02.196Z,8.20
2022-08-16T07:58:36.468Z,7.88
2022-08-16T08:01:12.601Z,8.25
2022-08-16T08:03:49.030Z,7.53
2022-08-16T08:06:20.069Z,7.47
2022-08-16T08:08:51.479Z,7.60
2022-08-16T08:11:21.911Z,6.57
2022-08-16T08:13:53.608Z,7.40
2022-08-16T08:16:21.976Z,8.10
2022-08-16T08:19:01.164Z,7.43
2022-08-16T08:22:00.848Z,7.00
2022-08-16T08:24:15.852Z,8.15
2022-08-16T08:26:44.499Z,7.78
2022-08-16T08:29:23.179Z,7.30
2022-08-16T08:31:52.460Z,7.78
2022-08-16T08:34:21.258Z,7.40
2022-08-16T08:36:50.062Z,7.97
2022-08-16T08:39:31.401Z,7.20
2022-08-16T08:42:00.269Z,7.53
2022-08-16T08:44:31.894Z,7.32
2022-08-16T08:47:09.230Z,7.72
2022-08-16T08:52:33.798Z,7.68
2022-08-16T08:55:10.755Z,8.35
2022-08-16T08:57:41.017Z,7.80
2022-08-16T09:00:21.484Z,8.20
2022-08-16T09:02:56.782Z,8.40
2022-08-16T09:05:26.174Z,8.07
2022-08-16T09:08:05.882Z,7.60
2022-08-16T09:10:58.870Z,7.72
2022-08-16T09:13:33.101Z,7.85
2022-08-16T09:16:00.296Z,8.73
2022-08-16T09:18:35.263Z,8.32
2022-08-16T09:21:07.041Z,8.05
2022-08-16T09:23:37.467Z,7.95
2022-08-16T09:26:44.574Z,8.38
2022-08-16T09:29:14.670Z,7.65
2022-08-16T09:31:42.093Z,7.65
2022-08-16T09:34:09.336Z,7.20
2022-08-16T09:36:37.383Z,7.20
2022-08-16T09:39:16.347Z,7.00
2022-08-16T09:41:53.191Z,7.28
2022-08-16T09:45:10.780Z,7.28
2022-08-16T09:47:10.380Z,7.38
2022-08-16T09:49:37.566Z,6.68
2022-08-16T09:52:09.464Z,7.10
2022-08-16T09:54:37.811Z,7.15
2022-08-16T09:57:04.929Z,7.05
2022-08-16T09:59:38.409Z,7.05
2022-08-16T10:04:53.008Z,7.38
2022-08-16T10:07:21.908Z,7.40
2022-08-16T10:09:55.324Z,7.22
2022-08-16T10:12:55.936Z,7.78
2022-08-16T10:15:24.603Z,7.97
2022-08-16T10:18:01.498Z,8.07
2022-08-16T10:20:32.487Z,7.80
2022-08-16T10:23:06.841Z,7.20
2022-08-16T10:27:22.007Z,6.75
2022-08-16T10:28:32.318Z,6.70
2022-08-16T10:31:07.187Z,6.72
2022-08-16T10:33:35.320Z,6.85
2022-08-16T10:36:12.343Z,6.90
2022-08-16T10:38:58.847Z,7.40
2022-08-16T10:41:25.313Z,7.13
2022-08-16T10:43:52.096Z,7.55
2022-08-16T10:46:33.736Z,7.65
2022-08-16T10:49:05.934Z,7.22
2022-08-16T10:51:34.433Z,7.80
2022-08-16T10:54:58.448Z,8.00
2022-08-16T10:57:28.050Z,7.50
2022-08-16T11:02:59.982Z,7.45
2022-08-16T11:05:16.744Z,7.78
2022-08-16T11:07:51.931Z,7.10
2022-08-16T11:19:06.001Z,7.35
2022-08-16T11:22:11.139Z,7.97
2022-08-16T11:24:41.350Z,7.15
2022-08-16T11:27:20.431Z,7.75
2022-08-16T11:29:49.630Z,8.02
2022-08-16T11:32:20.119Z,7.13
2022-08-16T11:35:09.779Z,7.32
2022-08-16T11:38:23.626Z,7.82
2022-08-16T11:40:32.295Z,7.28
2022-08-16T11:42:59.982Z,6.90
2022-08-16T11:45:26.819Z,7.57
2022-08-16T11:47:54.536Z,7.38
2022-08-16T11:50:21.760Z,6.85
2022-08-16T11:52:48.213Z,7.05
2022-08-16T11:55:14.745Z,7.68
2022-08-16T11:57:41.382Z,8.13
2022-08-16T12:00:49.996Z,7.32
2022-08-16T12:03:00.738Z,6.57
2022-08-16T12:05:28.097Z,7.30
2022-08-16T12:07:55.517Z,6.60
2022-08-16T12:10:24.254Z,6.50
2022-08-16T12:12:54.606Z,6.95
2022-08-16T12:15:27.376Z,6.88
2022-08-16T12:17:57.667Z,6.95
2022-08-16T12:20:32.079Z,6.70
2022-08-16T12:25:29.211Z,6.43
2022-08-16T12:27:57.164Z,6.20
2022-08-16T12:30:32.183Z,5.95
2022-08-16T12:33:03.177Z,6.60
2022-08-16T12:35:32.526Z,6.78
2022-08-16T12:38:01.194Z,5.80
2022-08-16T12:40:50.920Z,5.78
2022-08-16T12:43:23.489Z,5.93
2022-08-16T12:45:53.571Z,6.00
2022-08-16T12:48:43.281Z,6.07
2022-08-16T12:51:19.900Z,6.25
2022-08-16T12:53:51.726Z,6.30
2022-08-16T12:56:20.153Z,5.68
2022-08-16T12:58:51.969Z,5.65
2022-08-16T13:01:22.678Z,6.35
2022-08-16T13:03:59.153Z,6.43
2022-08-16T13:06:37.131Z,6.47
2022-08-16T13:09:20.225Z,6.30
2022-08-16T13:12:19.612Z,7.28
2022-08-16T13:14:47.814Z,7.18
2022-08-16T13:17:26.329Z,6.82
2022-08-16T13:20:07.178Z,7.35
2022-08-16T13:22:42.153Z,7.32
2022-08-16T13:25:10.569Z,6.55
2022-08-16T13:28:15.097Z,7.03
2022-08-16T13:30:37.862Z,6.57
2022-08-16T13:33:29.566Z,7.15
2022-08-16T13:36:00.172Z,8.25
2022-08-16T13:38:36.399Z,7.97
2022-08-16T13:41:08.333Z,7.35
2022-08-16T13:43:37.754Z,7.40
2022-08-16T13:46:04.986Z,7.72
2022-08-16T13:48:43.033Z,8.25
2022-08-16T13:51:16.835Z,7.78
2022-08-16T13:53:49.658Z,7.85
2022-08-16T13:56:34.246Z,7.82
2022-08-16T13:59:06.181Z,7.63
2022-08-16T14:01:44.013Z,8.73
2022-08-16T14:04:12.281Z,7.55
2022-08-16T14:06:52.761Z,7.63
2022-08-16T14:09:20.206Z,7.57
2022-08-16T14:11:46.709Z,7.00
2022-08-16T14:14:16.486Z,8.05
2022-08-16T14:16:44.669Z,7.95
2022-08-16T14:19:13.782Z,8.38
2022-08-16T14:21:55.896Z,7.88
2022-08-16T14:24:30.041Z,7.45
2022-08-16T14:26:57.703Z,7.95
2022-08-16T14:29:24.287Z,7.55
2022-08-16T14:31:58.877Z,7.60
2022-08-16T14:34:25.766Z,8.40
2022-08-16T14:36:55.604Z,8.63
2022-08-16T14:39:22.462Z,7.50
2022-08-16T14:41:49.289Z,7.70
2022-08-16T14:44:19.781Z,7.25
2022-08-16T14:46:46.706Z,7.25
2022-08-16T14:49:14.334Z,8.23
2022-08-16T14:51:40.875Z,7.88
2022-08-16T14:54:11.356Z,8.13
2022-08-16T14:56:42.446Z,7.72
2022-08-16T14:59:10.850Z,7.90
2022-08-16T15:01:58.920Z,7.65
2022-08-16T15:04:32.601Z,7.93
2022-08-16T15:07:11.063Z,7.78
2022-08-16T15:09:44.598Z,7.72
2022-08-16T15:12:31.311Z,8.13
2022-08-16T15:15:12.080Z,7.68
2022-08-16T15:17:41.425Z,8.30
2022-08-16T15:20:09.166Z,8.52
2022-08-16T15:22:45.875Z,7.93
2022-08-16T15:25:22.541Z,8.23
2022-08-16T15:27:58.741Z,8.85
2022-08-16T15:30:57.608Z,9.32
2022-08-16T15:33:19.616Z,9.38
2022-08-16T15:35:49.910Z,8.98
2022-08-16T15:38:57.585Z,8.48
2022-08-16T15:41:04.713Z,9.00
2022-08-16T15:43:39.181Z,8.77
2022-08-16T15:46:35.719Z,8.18
2022-08-16T15:49:09.585Z,7.95
2022-08-16T15:51:36.975Z,8.35
2022-08-16T15:54:21.087Z,7.63
2022-08-16T15:56:54.996Z,7.55
2022-08-16T15:59:23.637Z,7.43
2022-08-16T16:01:51.436Z,7.00
2022-08-16T16:04:22.820Z,7.45
2022-08-16T16:06:54.857Z,6.75
2022-08-16T16:09:36.996Z,6.47
2022-08-16T16:12:16.226Z,6.93
2022-08-16T16:14:52.102Z,7.07
2022-08-16T16:17:18.721Z,7.15
2022-08-16T16:19:45.340Z,6.68
2022-08-16T16:22:17.375Z,7.15
2022-08-16T16:24:47.050Z,7.18
2022-08-16T16:27:14.081Z,6.75
2022-08-16T16:29:42.673Z,7.13
2022-08-16T16:32:13.369Z,6.53
2022-08-16T16:34:43.172Z,6.53
2022-08-16T16:37:10.369Z,6.65
2022-08-16T16:39:37.695Z,6.88
2022-08-16T16:42:05.138Z,6.25
2022-08-16T16:44:36.251Z,6.03
2022-08-16T16:47:03.822Z,6.28
2022-08-16T16:49:32.862Z,6.95
2022-08-16T16:52:06.548Z,6.00
2022-08-16T16:54:35.521Z,6.47
2022-08-16T16:57:02.523Z,7.13
2022-08-16T16:59:29.272Z,6.68
2022-08-16T17:02:39.422Z,7.13
2022-08-16T17:04:45.788Z,6.70
2022-08-16T17:07:14.154Z,6.57
2022-08-16T17:09:41.448Z,6.30
2022-08-16T17:12:10.121Z,6.82
2022-08-16T17:14:42.679Z,6.55
2022-08-16T17:17:09.847Z,6.25
2022-08-16T17:19:41.242Z,6.00
2022-08-16T17:22:19.777Z,6.68
2022-08-16T17:24:50.916Z,5.90
2022-08-16T17:27:32.373Z,6.80
2022-08-16T17:30:15.663Z,6.53
2022-08-16T17:32:47.961Z,6.00
2022-08-16T17:35:19.038Z,6.22
2022-08-16T17:37:51.170Z,6.75
2022-08-16T17:40:25.696Z,6.50
2022-08-16T17:43:13.397Z,6.47
2022-08-16T17:45:41.752Z,6.32
2022-08-16T17:48:08.646Z,6.00
2022-08-16T17:50:35.975Z,6.00
2022-08-16T17:53:02.941Z,6.35
2022-08-16T17:55:33.531Z,6.25
2022-08-16T17:58:00.432Z,6.05
2022-08-16T18:00:29.742Z,6.25
2022-08-16T18:03:00.199Z,6.43
2022-08-16T18:05:29.828Z,6.38
2022-08-16T18:07:56.504Z,6.03
2022-08-16T18:10:33.044Z,6.15
2022-08-16T18:13:03.051Z,6.55
2022-08-16T18:15:30.917Z,6.70
2022-08-16T18:17:57.441Z,6.63
2022-08-16T18:20:43.237Z,7.05
2022-08-16T18:23:15.049Z,6.70
2022-08-16T18:25:47.829Z,6.47
2022-08-16T18:28:14.889Z,6.45
2022-08-16T18:30:41.470Z,6.55
2022-08-16T18:33:08.589Z,6.45
2022-08-16T18:35:35.496Z,6.93
2022-08-16T18:38:02.005Z,6.47
2022-08-16T18:40:29.250Z,7.18
2022-08-16T18:43:04.612Z,7.00
2022-08-16T18:45:35.729Z,7.15
2022-08-16T18:48:04.614Z,7.32
2022-08-16T18:51:04.409Z,6.60
2022-08-16T18:53:21.542Z,6.95
2022-08-16T18:55:48.975Z,6.82
2022-08-16T18:58:16.091Z,7.50
2022-08-16T19:00:56.731Z,6.32
2022-08-16T19:03:30.166Z,7.03
2022-08-16T19:06:10.489Z,6.82
2022-08-16T19:08:40.090Z,6.77
2022-08-16T19:11:10.397Z,6.80
2022-08-16T19:13:40.249Z,7.30
2022-08-16T19:16:07.206Z,6.57
2022-08-16T19:18:36.645Z,6.93
2022-08-16T19:21:05.024Z,7.22
2022-08-16T19:23:35.753Z,6.38
2022-08-16T19:26:24.951Z,7.20
2022-08-16T19:28:58.775Z,7.30
2022-08-16T19:31:29.359Z,6.95
2022-08-16T19:33:56.869Z,7.25
2022-08-16T19:36:36.723Z,7.53
2022-08-16T19:39:13.931Z,7.63
2022-08-16T19:41:43.368Z,7.43
2022-08-16T19:44:10.112Z,7.40
2022-08-16T19:46:37.969Z,7.45
2022-08-16T19:49:05.165Z,7.00
2022-08-16T19:51:32.192Z,7.53
2022-08-16T19:53:58.740Z,7.18
2022-08-16T19:56:26.597Z,7.30
2022-08-16T19:59:18.223Z,7.13
2022-08-16T20:01:44.261Z,7.70
2022-08-16T20:04:14.710Z,7.70
2022-08-16T20:06:42.219Z,7.10
2022-08-16T20:09:10.523Z,7.22
2022-08-16T20:11:41.645Z,7.93
2022-08-16T20:14:08.121Z,7.95
2022-08-16T20:16:34.609Z,8.57
2022-08-16T20:19:01.192Z,8.00
2022-08-16T20:21:28.380Z,8.35
2022-08-16T20:24:09.960Z,7.78
2022-08-16T20:26:41.394Z,8.20
2022-08-16T20:29:07.859Z,7.93
2022-08-16T20:31:34.306Z,8.55
2022-08-16T20:34:02.127Z,8.02
2022-08-16T20:36:29.447Z,8.52
2022-08-16T20:38:59.700Z,8.75
2022-08-16T20:41:27.105Z,8.48
2022-08-16T20:43:55.096Z,8.65
2022-08-16T20:46:22.020Z,8.75
2022-08-16T20:48:48.623Z,7.90
2022-08-16T20:51:15.493Z,8.15
2022-08-16T20:53:43.635Z,7.78
2022-08-16T20:56:11.732Z,8.38
2022-08-16T20:58:38.495Z,8.23
2022-08-16T21:01:06.924Z,7.80
2022-08-16T21:03:33.728Z,8.13
2022-08-16T21:06:03.302Z,7.32
2022-08-16T21:08:53.174Z,8.10
2022-08-16T21:11:16.883Z,8.38
2022-08-16T21:13:43.415Z,7.85
2022-08-16T21:16:09.860Z,8.02
2022-08-16T21:18:36.319Z,8.43
2022-08-16T21:21:02.792Z,8.57
2022-08-16T21:23:29.223Z,7.85
2022-08-16T21:25:57.890Z,7.35
2022-08-16T21:28:41.959Z,8.52
2022-08-16T21:31:14.890Z,8.05
2022-08-16T21:33:43.047Z,7.72
2022-08-16T21:36:10.875Z,7.80
2022-08-16T21:38:37.632Z,8.50
2022-08-16T21:41:07.329Z,8.88
2022-08-16T21:43:34.681Z,9.25
2022-08-16T21:46:01.970Z,8.30
2022-08-16T21:48:34.094Z,7.80
2022-08-16T21:51:05.016Z,8.30
2022-08-16T21:53:31.895Z,8.32
2022-08-16T21:55:59.450Z,8.00
2022-08-16T21:58:26.234Z,8.15
2022-08-16T22:00:52.921Z,8.32
2022-08-16T22:03:19.583Z,8.65
2022-08-16T22:06:11.747Z,8.70
2022-08-16T22:08:35.744Z,8.30
2022-08-16T22:11:13.209Z,8.82
2022-08-16T22:13:40.263Z,8.50
2022-08-16T22:16:08.666Z,8.13
2022-08-16T22:18:35.118Z,8.23
2022-08-16T22:21:01.637Z,8.73
2022-08-16T22:23:28.126Z,8.65
2022-08-16T22:25:56.095Z,8.32
2022-08-16T22:28:23.934Z,8.65
2022-08-16T22:30:51.202Z,8.60
2022-08-16T22:33:21.098Z,8.68
2022-08-16T22:35:51.043Z,7.95
2022-08-16T22:38:55.171Z,8.65
2022-08-16T22:41:06.251Z,8.38
2022-08-16T22:43:33.063Z,8.80
2022-08-16T22:45:59.557Z,8.40
2022-08-16T22:48:26.120Z,8.63
2022-08-16T22:50:52.933Z,8.57
2022-08-16T22:53:19.705Z,9.23
2022-08-16T22:55:46.913Z,9.32
2022-08-16T22:58:13.942Z,8.77
2022-08-16T23:00:41.315Z,9.10
2022-08-16T23:03:16.757Z,8.60
2022-08-16T23:05:55.823Z,9.27
2022-08-16T23:08:38.817Z,9.75
2022-08-16T23:11:08.812Z,9.25
2022-08-16T23:13:35.290Z,9.40
2022-08-16T23:16:10.983Z,9.25
2022-08-16T23:18:39.540Z,9.45
2022-08-16T23:21:09.709Z,9.40
2022-08-16T23:23:37.578Z,8.80
2022-08-16T23:26:46.316Z,8.93
2022-08-16T23:28:52.185Z,9.05
2022-08-16T23:31:18.803Z,9.30
2022-08-16T23:33:45.923Z,9.20
2022-08-16T23:36:12.942Z,9.43
2022-08-16T23:38:39.786Z,8.68
2022-08-16T23:41:11.365Z,8.45
2022-08-16T23:43:41.777Z,9.00
2022-08-16T23:46:13.786Z,9.10
2022-08-16T23:50:01.599Z,8.50
2022-08-16T23:51:28.908Z,9.13
2022-08-16T23:53:55.821Z,8.50
2022-08-16T23:56:22.503Z,8.68
2022-08-16T23:58:54.402Z,9.20
